sensor_id;sensor_type;location;lat;lon;timestamp;P1;durP1;ratioP1;P2;durP2;ratioP2
8171;SDS011;4127;47.908;10.850;2023-06-14T00:02:10;3.63;;;3.30;;
8171;SDS011;4127;47.908;10.850;2023-06-14T00:04:37;3.80;;;3.40;;
8171;SDS011;4127;47.908;10.850;2023-06-14T00:07:05;3.80;;;3.40;;
8171;SDS011;4127;47.908;10.850;2023-06-14T00:09:37;5.07;;;3.20;;
8171;SDS011;4127;47.908;10.850;2023-06-14T00:12:04;3.13;;;2.83;;
8171;SDS011;4127;47.908;10.850;2023-06-14T00:14:32;3.83;;;3.20;;
8171;SDS011;4127;47.908;10.850;2023-06-14T00:16:59;4.33;;;3.53;;
8171;SDS011;4127;47.908;10.850;2023-06-14T00:19:27;3.50;;;3.20;;
8171;SDS011;4127;47.908;10.850;2023-06-14T00:21:55;3.47;;;3.17;;
8171;SDS011;4127;47.908;10.850;2023-06-14T00:24:23;4.90;;;3.60;;
8171;SDS011;4127;47.908;10.850;2023-06-14T00:26:50;3.30;;;3.00;;
8171;SDS011;4127;47.908;10.850;2023-06-14T00:29:16;3.27;;;2.97;;
8171;SDS011;4127;47.908;10.850;2023-06-14T00:31:43;4.50;;;3.13;;
8171;SDS011;4127;47.908;10.850;2023-06-14T00:34:10;3.30;;;3.00;;
8171;SDS011;4127;47.908;10.850;2023-06-14T00:36:37;4.00;;;3.50;;
8171;SDS011;4127;47.908;10.850;2023-06-14T00:39:04;4.23;;;3.17;;
8171;SDS011;4127;47.908;10.850;2023-06-14T00:41:31;4.80;;;3.57;;
8171;SDS011;4127;47.908;10.850;2023-06-14T00:43:58;3.50;;;3.20;;
8171;SDS011;4127;47.908;10.850;2023-06-14T00:46:26;3.73;;;3.33;;
8171;SDS011;4127;47.908;10.850;2023-06-14T00:48:53;3.93;;;3.63;;
8171;SDS011;4127;47.908;10.850;2023-06-14T00:51:21;3.33;;;3.03;;
8171;SDS011;4127;47.908;10.850;2023-06-14T00:53:48;4.07;;;3.60;;
8171;SDS011;4127;47.908;10.850;2023-06-14T00:56:17;3.97;;;3.60;;
8171;SDS011;4127;47.908;10.850;2023-06-14T00:58:47;3.20;;;2.90;;
8171;SDS011;4127;47.908;10.850;2023-06-14T01:01:14;3.40;;;3.10;;
8171;SDS011;4127;47.908;10.850;2023-06-14T01:03:41;3.60;;;3.30;;
8171;SDS011;4127;47.908;10.850;2023-06-14T01:06:27;3.60;;;3.30;;
8171;SDS011;4127;47.908;10.850;2023-06-14T01:09:27;5.37;;;3.53;;
8171;SDS011;4127;47.908;10.850;2023-06-14T01:14:59;3.40;;;3.10;;
8171;SDS011;4127;47.908;10.850;2023-06-14T01:17:27;3.77;;;3.47;;
8171;SDS011;4127;47.908;10.850;2023-06-14T01:19:58;3.43;;;3.13;;
8171;SDS011;4127;47.908;10.850;2023-06-14T01:22:27;3.93;;;3.53;;
8171;SDS011;4127;47.908;10.850;2023-06-14T01:24:54;4.57;;;3.33;;
8171;SDS011;4127;47.908;10.850;2023-06-14T01:27:24;3.50;;;3.10;;
8171;SDS011;4127;47.908;10.850;2023-06-14T01:29:55;3.93;;;3.53;;
8171;SDS011;4127;47.908;10.850;2023-06-14T01:32:23;4.73;;;3.10;;
8171;SDS011;4127;47.908;10.850;2023-06-14T01:34:52;4.27;;;3.23;;
8171;SDS011;4127;47.908;10.850;2023-06-14T01:37:19;3.70;;;3.40;;
8171;SDS011;4127;47.908;10.850;2023-06-14T01:39:48;3.53;;;3.20;;
8171;SDS011;4127;47.908;10.850;2023-06-14T01:42:18;4.27;;;3.57;;
8171;SDS011;4127;47.908;10.850;2023-06-14T01:44:46;3.30;;;3.00;;
8171;SDS011;4127;47.908;10.850;2023-06-14T01:47:14;3.67;;;3.37;;
8171;SDS011;4127;47.908;10.850;2023-06-14T01:49:41;3.63;;;3.33;;
8171;SDS011;4127;47.908;10.850;2023-06-14T01:52:08;3.63;;;3.33;;
8171;SDS011;4127;47.908;10.850;2023-06-14T01:54:36;4.13;;;3.50;;
8171;SDS011;4127;47.908;10.850;2023-06-14T01:57:08;4.73;;;3.23;;
8171;SDS011;4127;47.908;10.850;2023-06-14T01:59:39;3.70;;;3.30;;
8171;SDS011;4127;47.908;10.850;2023-06-14T02:02:06;3.60;;;3.30;;
8171;SDS011;4127;47.908;10.850;2023-06-14T02:04:33;4.40;;;3.10;;
8171;SDS011;4127;47.908;10.850;2023-06-14T02:07:00;3.90;;;3.20;;
8171;SDS011;4127;47.908;10.850;2023-06-14T02:09:28;5.43;;;3.63;;
8171;SDS011;4127;47.908;10.850;2023-06-14T02:11:54;4.00;;;3.50;;
8171;SDS011;4127;47.908;10.850;2023-06-14T02:14:21;3.60;;;3.30;;
8171;SDS011;4127;47.908;10.850;2023-06-14T02:16:49;3.50;;;3.20;;
8171;SDS011;4127;47.908;10.850;2023-06-14T02:19:16;3.80;;;3.40;;
8171;SDS011;4127;47.908;10.850;2023-06-14T02:21:44;3.67;;;3.37;;
8171;SDS011;4127;47.908;10.850;2023-06-14T02:24:11;4.00;;;3.60;;
8171;SDS011;4127;47.908;10.850;2023-06-14T02:26:38;3.57;;;3.27;;
8171;SDS011;4127;47.908;10.850;2023-06-14T02:29:06;4.50;;;3.43;;
8171;SDS011;4127;47.908;10.850;2023-06-14T02:31:35;4.67;;;3.63;;
8171;SDS011;4127;47.908;10.850;2023-06-14T02:34:02;3.77;;;3.47;;
8171;SDS011;4127;47.908;10.850;2023-06-14T02:36:29;4.13;;;3.40;;
8171;SDS011;4127;47.908;10.850;2023-06-14T02:38:56;3.73;;;3.33;;
8171;SDS011;4127;47.908;10.850;2023-06-14T02:41:24;3.40;;;3.10;;
8171;SDS011;4127;47.908;10.850;2023-06-14T02:43:52;3.50;;;3.10;;
8171;SDS011;4127;47.908;10.850;2023-06-14T02:46:19;3.70;;;3.30;;
8171;SDS011;4127;47.908;10.850;2023-06-14T02:48:46;4.00;;;3.60;;
8171;SDS011;4127;47.908;10.850;2023-06-14T02:51:13;3.93;;;3.30;;
8171;SDS011;4127;47.908;10.850;2023-06-14T02:53:39;3.60;;;3.30;;
8171;SDS011;4127;47.908;10.850;2023-06-14T02:56:06;3.57;;;3.27;;
8171;SDS011;4127;47.908;10.850;2023-06-14T02:58:33;3.50;;;3.20;;
8171;SDS011;4127;47.908;10.850;2023-06-14T03:01:00;4.03;;;3.63;;
8171;SDS011;4127;47.908;10.850;2023-06-14T03:03:30;4.00;;;3.30;;
8171;SDS011;4127;47.908;10.850;2023-06-14T03:05:58;3.80;;;3.40;;
8171;SDS011;4127;47.908;10.850;2023-06-14T03:08:27;3.77;;;3.27;;
8171;SDS011;4127;47.908;10.850;2023-06-14T03:10:55;3.57;;;3.23;;
8171;SDS011;4127;47.908;10.850;2023-06-14T03:13:22;3.53;;;3.23;;
8171;SDS011;4127;47.908;10.850;2023-06-14T03:15:49;3.87;;;3.47;;
8171;SDS011;4127;47.908;10.850;2023-06-14T03:18:16;5.23;;;3.80;;
8171;SDS011;4127;47.908;10.850;2023-06-14T03:20:43;4.13;;;3.57;;
8171;SDS011;4127;47.908;10.850;2023-06-14T03:23:12;3.53;;;3.23;;
8171;SDS011;4127;47.908;10.850;2023-06-14T03:25:38;3.67;;;3.10;;
8171;SDS011;4127;47.908;10.850;2023-06-14T03:28:08;3.73;;;3.17;;
8171;SDS011;4127;47.908;10.850;2023-06-14T03:30:35;3.30;;;3.00;;
8171;SDS011;4127;47.908;10.850;2023-06-14T03:33:01;5.53;;;3.77;;
8171;SDS011;4127;47.908;10.850;2023-06-14T03:35:29;5.53;;;3.67;;
8171;SDS011;4127;47.908;10.850;2023-06-14T03:37:55;3.70;;;3.30;;
8171;SDS011;4127;47.908;10.850;2023-06-14T03:40:22;3.73;;;3.40;;
8171;SDS011;4127;47.908;10.850;2023-06-14T03:42:53;3.80;;;3.50;;
8171;SDS011;4127;47.908;10.850;2023-06-14T03:45:20;5.03;;;3.60;;
8171;SDS011;4127;47.908;10.850;2023-06-14T03:47:47;3.97;;;3.60;;
8171;SDS011;4127;47.908;10.850;2023-06-14T03:50:14;3.47;;;3.17;;
8171;SDS011;4127;47.908;10.850;2023-06-14T03:52:42;3.93;;;3.50;;
8171;SDS011;4127;47.908;10.850;2023-06-14T03:55:09;3.63;;;3.33;;
8171;SDS011;4127;47.908;10.850;2023-06-14T03:57:42;3.53;;;3.23;;
8171;SDS011;4127;47.908;10.850;2023-06-14T04:00:09;3.90;;;3.50;;
8171;SDS011;4127;47.908;10.850;2023-06-14T04:02:37;4.00;;;3.60;;
8171;SDS011;4127;47.908;10.850;2023-06-14T04:05:04;4.13;;;3.50;;
8171;SDS011;4127;47.908;10.850;2023-06-14T04:07:35;4.30;;;3.90;;
8171;SDS011;4127;47.908;10.850;2023-06-14T04:10:06;3.50;;;3.20;;
8171;SDS011;4127;47.908;10.850;2023-06-14T04:12:34;3.27;;;3.07;;
8171;SDS011;4127;47.908;10.850;2023-06-14T04:15:01;3.00;;;2.80;;
8171;SDS011;4127;47.908;10.850;2023-06-14T04:17:45;3.63;;;3.30;;
8171;SDS011;4127;47.908;10.850;2023-06-14T04:20:12;3.87;;;3.47;;
8171;SDS011;4127;47.908;10.850;2023-06-14T04:22:39;3.33;;;3.10;;
8171;SDS011;4127;47.908;10.850;2023-06-14T04:25:07;4.00;;;3.60;;
8171;SDS011;4127;47.908;10.850;2023-06-14T04:27:34;3.57;;;3.27;;
8171;SDS011;4127;47.908;10.850;2023-06-14T04:30:02;3.83;;;3.47;;
8171;SDS011;4127;47.908;10.850;2023-06-14T04:32:29;3.40;;;3.10;;
8171;SDS011;4127;47.908;10.850;2023-06-14T04:35:00;3.90;;;3.60;;
8171;SDS011;4127;47.908;10.850;2023-06-14T04:37:30;3.27;;;3.00;;
8171;SDS011;4127;47.908;10.850;2023-06-14T04:39:56;3.80;;;3.50;;
8171;SDS011;4127;47.908;10.850;2023-06-14T04:42:24;3.40;;;3.10;;
8171;SDS011;4127;47.908;10.850;2023-06-14T04:44:56;3.53;;;3.23;;
8171;SDS011;4127;47.908;10.850;2023-06-14T04:47:23;3.27;;;3.03;;
8171;SDS011;4127;47.908;10.850;2023-06-14T04:49:59;5.03;;;3.37;;
8171;SDS011;4127;47.908;10.850;2023-06-14T04:52:26;4.17;;;3.37;;
8171;SDS011;4127;47.908;10.850;2023-06-14T04:54:56;3.77;;;3.47;;
8171;SDS011;4127;47.908;10.850;2023-06-14T04:57:23;4.37;;;3.30;;
8171;SDS011;4127;47.908;10.850;2023-06-14T04:59:51;3.97;;;3.50;;
8171;SDS011;4127;47.908;10.850;2023-06-14T05:02:22;3.50;;;3.20;;
8171;SDS011;4127;47.908;10.850;2023-06-14T05:04:50;3.37;;;3.07;;
8171;SDS011;4127;47.908;10.850;2023-06-14T05:07:17;5.10;;;3.37;;
8171;SDS011;4127;47.908;10.850;2023-06-14T05:09:44;3.40;;;3.10;;
8171;SDS011;4127;47.908;10.850;2023-06-14T05:12:12;3.80;;;3.50;;
8171;SDS011;4127;47.908;10.850;2023-06-14T05:14:38;3.73;;;3.43;;
8171;SDS011;4127;47.908;10.850;2023-06-14T05:17:05;3.20;;;2.90;;
8171;SDS011;4127;47.908;10.850;2023-06-14T05:19:33;3.60;;;3.30;;
8171;SDS011;4127;47.908;10.850;2023-06-14T05:22:00;3.57;;;3.27;;
8171;SDS011;4127;47.908;10.850;2023-06-14T05:24:29;3.97;;;3.60;;
8171;SDS011;4127;47.908;10.850;2023-06-14T05:26:56;3.40;;;3.10;;
8171;SDS011;4127;47.908;10.850;2023-06-14T05:29:24;3.33;;;3.03;;
8171;SDS011;4127;47.908;10.850;2023-06-14T05:31:54;3.70;;;3.40;;
8171;SDS011;4127;47.908;10.850;2023-06-14T05:34:21;3.40;;;3.10;;
8171;SDS011;4127;47.908;10.850;2023-06-14T05:36:48;3.17;;;2.97;;
8171;SDS011;4127;47.908;10.850;2023-06-14T05:39:14;4.30;;;3.90;;
8171;SDS011;4127;47.908;10.850;2023-06-14T05:41:42;3.40;;;3.10;;
8171;SDS011;4127;47.908;10.850;2023-06-14T05:44:08;4.97;;;3.93;;
8171;SDS011;4127;47.908;10.850;2023-06-14T05:46:35;4.47;;;4.07;;
8171;SDS011;4127;47.908;10.850;2023-06-14T05:49:02;3.90;;;3.50;;
8171;SDS011;4127;47.908;10.850;2023-06-14T05:51:29;4.23;;;3.90;;
8171;SDS011;4127;47.908;10.850;2023-06-14T05:53:56;4.20;;;3.80;;
8171;SDS011;4127;47.908;10.850;2023-06-14T05:56:23;3.80;;;3.40;;
8171;SDS011;4127;47.908;10.850;2023-06-14T05:58:50;4.57;;;4.17;;
8171;SDS011;4127;47.908;10.850;2023-06-14T06:01:17;7.70;;;4.77;;
8171;SDS011;4127;47.908;10.850;2023-06-14T06:03:44;4.70;;;4.17;;
8171;SDS011;4127;47.908;10.850;2023-06-14T06:06:14;5.60;;;4.67;;
8171;SDS011;4127;47.908;10.850;2023-06-14T06:08:42;6.00;;;4.90;;
8171;SDS011;4127;47.908;10.850;2023-06-14T06:11:09;4.93;;;4.20;;
8171;SDS011;4127;47.908;10.850;2023-06-14T06:13:36;4.80;;;4.40;;
8171;SDS011;4127;47.908;10.850;2023-06-14T06:16:05;5.30;;;4.77;;
8171;SDS011;4127;47.908;10.850;2023-06-14T06:18:32;4.80;;;4.30;;
8171;SDS011;4127;47.908;10.850;2023-06-14T06:20:59;4.87;;;3.77;;
8171;SDS011;4127;47.908;10.850;2023-06-14T06:23:26;8.90;;;4.47;;
8171;SDS011;4127;47.908;10.850;2023-06-14T06:25:53;7.67;;;4.50;;
8171;SDS011;4127;47.908;10.850;2023-06-14T06:28:19;5.50;;;4.03;;
8171;SDS011;4127;47.908;10.850;2023-06-14T06:30:46;5.43;;;4.83;;
8171;SDS011;4127;47.908;10.850;2023-06-14T06:33:13;5.40;;;4.20;;
8171;SDS011;4127;47.908;10.850;2023-06-14T06:35:40;4.03;;;3.57;;
8171;SDS011;4127;47.908;10.850;2023-06-14T06:38:07;4.63;;;4.00;;
8171;SDS011;4127;47.908;10.850;2023-06-14T06:40:36;4.27;;;3.87;;
8171;SDS011;4127;47.908;10.850;2023-06-14T06:43:03;4.43;;;3.90;;
8171;SDS011;4127;47.908;10.850;2023-06-14T06:45:29;7.17;;;4.00;;
8171;SDS011;4127;47.908;10.850;2023-06-14T06:47:56;7.17;;;3.87;;
8171;SDS011;4127;47.908;10.850;2023-06-14T06:50:23;5.00;;;3.87;;
8171;SDS011;4127;47.908;10.850;2023-06-14T06:52:51;3.67;;;3.30;;
8171;SDS011;4127;47.908;10.850;2023-06-14T06:55:19;5.93;;;3.60;;
8171;SDS011;4127;47.908;10.850;2023-06-14T06:57:46;3.60;;;3.27;;
8171;SDS011;4127;47.908;10.850;2023-06-14T07:00:13;3.87;;;3.30;;
8171;SDS011;4127;47.908;10.850;2023-06-14T07:02:40;3.67;;;3.30;;
8171;SDS011;4127;47.908;10.850;2023-06-14T07:05:07;3.97;;;3.57;;
8171;SDS011;4127;47.908;10.850;2023-06-14T07:07:35;4.90;;;3.50;;
8171;SDS011;4127;47.908;10.850;2023-06-14T07:10:02;3.80;;;3.40;;
8171;SDS011;4127;47.908;10.850;2023-06-14T07:12:31;3.67;;;3.27;;
8171;SDS011;4127;47.908;10.850;2023-06-14T07:15:00;3.93;;;3.53;;
8171;SDS011;4127;47.908;10.850;2023-06-14T07:17:27;3.97;;;3.50;;
8171;SDS011;4127;47.908;10.850;2023-06-14T07:19:54;4.20;;;3.47;;
8171;SDS011;4127;47.908;10.850;2023-06-14T07:22:20;3.73;;;3.43;;
8171;SDS011;4127;47.908;10.850;2023-06-14T07:24:47;3.73;;;3.43;;
8171;SDS011;4127;47.908;10.850;2023-06-14T07:27:14;3.80;;;3.50;;
8171;SDS011;4127;47.908;10.850;2023-06-14T07:29:41;4.17;;;3.80;;
8171;SDS011;4127;47.908;10.850;2023-06-14T07:32:08;3.40;;;3.00;;
8171;SDS011;4127;47.908;10.850;2023-06-14T07:34:34;4.07;;;3.10;;
8171;SDS011;4127;47.908;10.850;2023-06-14T07:37:01;3.40;;;3.10;;
8171;SDS011;4127;47.908;10.850;2023-06-14T07:39:28;3.03;;;2.77;;
8171;SDS011;4127;47.908;10.850;2023-06-14T07:41:55;3.97;;;3.30;;
8171;SDS011;4127;47.908;10.850;2023-06-14T07:44:22;4.97;;;3.20;;
8171;SDS011;4127;47.908;10.850;2023-06-14T07:46:49;3.57;;;3.23;;
8171;SDS011;4127;47.908;10.850;2023-06-14T07:49:16;3.50;;;3.20;;
8171;SDS011;4127;47.908;10.850;2023-06-14T07:51:44;3.57;;;3.07;;
8171;SDS011;4127;47.908;10.850;2023-06-14T07:54:11;3.17;;;2.87;;
8171;SDS011;4127;47.908;10.850;2023-06-14T07:56:38;3.30;;;2.90;;
8171;SDS011;4127;47.908;10.850;2023-06-14T07:59:06;3.63;;;3.27;;
8171;SDS011;4127;47.908;10.850;2023-06-14T08:01:33;3.20;;;2.90;;
8171;SDS011;4127;47.908;10.850;2023-06-14T08:04:01;3.33;;;2.93;;
8171;SDS011;4127;47.908;10.850;2023-06-14T08:06:28;3.13;;;2.83;;
8171;SDS011;4127;47.908;10.850;2023-06-14T08:08:55;4.13;;;3.00;;
8171;SDS011;4127;47.908;10.850;2023-06-14T08:11:22;4.50;;;3.17;;
8171;SDS011;4127;47.908;10.850;2023-06-14T08:13:50;3.67;;;3.03;;
8171;SDS011;4127;47.908;10.850;2023-06-14T08:16:17;3.50;;;3.20;;
8171;SDS011;4127;47.908;10.850;2023-06-14T08:18:44;4.10;;;2.80;;
8171;SDS011;4127;47.908;10.850;2023-06-14T08:21:11;3.30;;;2.67;;
8171;SDS011;4127;47.908;10.850;2023-06-14T08:23:38;2.67;;;2.40;;
8171;SDS011;4127;47.908;10.850;2023-06-14T08:26:05;4.07;;;2.90;;
8171;SDS011;4127;47.908;10.850;2023-06-14T08:28:33;5.10;;;3.93;;
8171;SDS011;4127;47.908;10.850;2023-06-14T08:31:02;3.00;;;2.80;;
8171;SDS011;4127;47.908;10.850;2023-06-14T08:33:29;3.63;;;2.90;;
8171;SDS011;4127;47.908;10.850;2023-06-14T08:36:00;3.50;;;2.80;;
8171;SDS011;4127;47.908;10.850;2023-06-14T08:38:26;3.73;;;2.63;;
8171;SDS011;4127;47.908;10.850;2023-06-14T08:40:55;3.40;;;3.10;;
8171;SDS011;4127;47.908;10.850;2023-06-14T08:43:24;4.17;;;2.70;;
8171;SDS011;4127;47.908;10.850;2023-06-14T08:45:53;3.43;;;2.63;;
8171;SDS011;4127;47.908;10.850;2023-06-14T08:48:28;3.23;;;2.93;;
8171;SDS011;4127;47.908;10.850;2023-06-14T08:50:55;4.17;;;3.20;;
8171;SDS011;4127;47.908;10.850;2023-06-14T08:53:28;3.47;;;3.00;;
8171;SDS011;4127;47.908;10.850;2023-06-14T08:56:01;6.03;;;3.77;;
8171;SDS011;4127;47.908;10.850;2023-06-14T08:58:31;4.97;;;2.83;;
8171;SDS011;4127;47.908;10.850;2023-06-14T09:01:03;4.33;;;3.07;;
8171;SDS011;4127;47.908;10.850;2023-06-14T09:03:31;4.27;;;2.87;;
8171;SDS011;4127;47.908;10.850;2023-06-14T09:05:59;3.30;;;3.00;;
8171;SDS011;4127;47.908;10.850;2023-06-14T09:08:27;3.10;;;2.80;;
8171;SDS011;4127;47.908;10.850;2023-06-14T09:10:57;3.10;;;2.80;;
8171;SDS011;4127;47.908;10.850;2023-06-14T09:13:26;4.37;;;2.93;;
8171;SDS011;4127;47.908;10.850;2023-06-14T09:15:57;3.10;;;2.80;;
8171;SDS011;4127;47.908;10.850;2023-06-14T09:18:33;3.20;;;2.90;;
8171;SDS011;4127;47.908;10.850;2023-06-14T09:21:05;3.40;;;2.80;;
8171;SDS011;4127;47.908;10.850;2023-06-14T09:23:36;5.33;;;2.97;;
8171;SDS011;4127;47.908;10.850;2023-06-14T09:26:08;4.03;;;3.10;;
8171;SDS011;4127;47.908;10.850;2023-06-14T09:28:42;3.50;;;2.97;;
8171;SDS011;4127;47.908;10.850;2023-06-14T09:31:14;3.27;;;2.97;;
8171;SDS011;4127;47.908;10.850;2023-06-14T09:33:46;2.97;;;2.67;;
8171;SDS011;4127;47.908;10.850;2023-06-14T09:36:15;4.43;;;2.60;;
8171;SDS011;4127;47.908;10.850;2023-06-14T09:38:56;3.23;;;2.90;;
8171;SDS011;4127;47.908;10.850;2023-06-14T09:41:34;6.53;;;2.97;;
8171;SDS011;4127;47.908;10.850;2023-06-14T09:44:03;3.13;;;2.85;;
8171;SDS011;4127;47.908;10.850;2023-06-14T09:46:36;3.10;;;2.80;;
8171;SDS011;4127;47.908;10.850;2023-06-14T09:49:04;3.10;;;2.80;;
8171;SDS011;4127;47.908;10.850;2023-06-14T09:51:32;5.32;;;2.78;;
8171;SDS011;4127;47.908;10.850;2023-06-14T09:54:01;3.65;;;3.00;;
8171;SDS011;4127;47.908;10.850;2023-06-14T09:56:34;3.55;;;3.15;;
8171;SDS011;4127;47.908;10.850;2023-06-14T09:59:06;6.40;;;3.20;;
8171;SDS011;4127;47.908;10.850;2023-06-14T10:01:40;4.75;;;2.65;;
8171;SDS011;4127;47.908;10.850;2023-06-14T10:04:09;3.85;;;3.00;;
8171;SDS011;4127;47.908;10.850;2023-06-14T10:06:38;3.30;;;3.00;;
8171;SDS011;4127;47.908;10.850;2023-06-14T10:09:08;3.25;;;2.95;;
8171;SDS011;4127;47.908;10.850;2023-06-14T10:11:36;4.18;;;2.85;;
8171;SDS011;4127;47.908;10.850;2023-06-14T10:14:04;3.15;;;2.85;;
8171;SDS011;4127;47.908;10.850;2023-06-14T10:21:55;5.25;;;3.03;;
8171;SDS011;4127;47.908;10.850;2023-06-14T10:24:30;10.70;;;3.55;;
8171;SDS011;4127;47.908;10.850;2023-06-14T10:27:00;4.22;;;2.60;;
8171;SDS011;4127;47.908;10.850;2023-06-14T10:29:27;3.33;;;3.03;;
8171;SDS011;4127;47.908;10.850;2023-06-14T10:31:59;6.60;;;3.13;;
8171;SDS011;4127;47.908;10.850;2023-06-14T10:34:27;3.30;;;3.00;;
8171;SDS011;4127;47.908;10.850;2023-06-14T10:37:02;3.28;;;2.67;;
8171;SDS011;4127;47.908;10.850;2023-06-14T10:39:30;4.43;;;3.22;;
8171;SDS011;4127;47.908;10.850;2023-06-14T10:41:58;3.88;;;2.80;;
8171;SDS011;4127;47.908;10.850;2023-06-14T10:44:32;3.40;;;3.10;;
8171;SDS011;4127;47.908;10.850;2023-06-14T10:47:10;3.75;;;2.90;;
8171;SDS011;4127;47.908;10.850;2023-06-14T10:49:51;3.42;;;2.97;;
8171;SDS011;4127;47.908;10.850;2023-06-14T10:52:26;2.97;;;2.78;;
8171;SDS011;4127;47.908;10.850;2023-06-14T10:55:02;3.10;;;2.80;;
8171;SDS011;4127;47.908;10.850;2023-06-14T10:57:33;3.08;;;2.75;;
8171;SDS011;4127;47.908;10.850;2023-06-14T11:00:17;3.55;;;3.25;;
8171;SDS011;4127;47.908;10.850;2023-06-14T11:05:20;3.50;;;2.80;;
8171;SDS011;4127;47.908;10.850;2023-06-14T11:13:04;4.28;;;3.22;;
8171;SDS011;4127;47.908;10.850;2023-06-14T11:15:32;3.03;;;2.70;;
8171;SDS011;4127;47.908;10.850;2023-06-14T11:18:00;2.92;;;2.50;;
8171;SDS011;4127;47.908;10.850;2023-06-14T11:20:30;3.15;;;2.85;;
8171;SDS011;4127;47.908;10.850;2023-06-14T11:22:58;3.55;;;3.25;;
8171;SDS011;4127;47.908;10.850;2023-06-14T11:25:26;3.22;;;2.92;;
8171;SDS011;4127;47.908;10.850;2023-06-14T11:27:54;2.80;;;2.60;;
8171;SDS011;4127;47.908;10.850;2023-06-14T11:30:22;4.03;;;2.70;;
8171;SDS011;4127;47.908;10.850;2023-06-14T11:32:50;2.92;;;2.70;;
8171;SDS011;4127;47.908;10.850;2023-06-14T11:35:24;3.28;;;2.70;;
8171;SDS011;4127;47.908;10.850;2023-06-14T11:37:55;2.85;;;2.65;;
8171;SDS011;4127;47.908;10.850;2023-06-14T11:40:23;3.38;;;3.03;;
8171;SDS011;4127;47.908;10.850;2023-06-14T11:42:57;3.60;;;2.70;;
8171;SDS011;4127;47.908;10.850;2023-06-14T11:45:26;3.13;;;2.83;;
8171;SDS011;4127;47.908;10.850;2023-06-14T11:47:57;3.95;;;3.20;;
8171;SDS011;4127;47.908;10.850;2023-06-14T11:50:25;3.13;;;2.78;;
8171;SDS011;4127;47.908;10.850;2023-06-14T11:52:54;2.65;;;2.45;;
8171;SDS011;4127;47.908;10.850;2023-06-14T11:55:22;2.75;;;2.55;;
8171;SDS011;4127;47.908;10.850;2023-06-14T11:57:50;4.22;;;2.85;;
8171;SDS011;4127;47.908;10.850;2023-06-14T12:00:17;5.18;;;3.13;;
8171;SDS011;4127;47.908;10.850;2023-06-14T12:02:52;3.90;;;2.88;;
8171;SDS011;4127;47.908;10.850;2023-06-14T12:05:24;3.45;;;2.72;;
8171;SDS011;4127;47.908;10.850;2023-06-14T12:07:59;3.63;;;2.60;;
8171;SDS011;4127;47.908;10.850;2023-06-14T12:10:27;3.13;;;2.83;;
8171;SDS011;4127;47.908;10.850;2023-06-14T12:12:58;2.90;;;2.70;;
8171;SDS011;4127;47.908;10.850;2023-06-14T12:15:28;3.38;;;2.60;;
8171;SDS011;4127;47.908;10.850;2023-06-14T12:17:57;3.45;;;2.85;;
8171;SDS011;4127;47.908;10.850;2023-06-14T12:20:28;3.05;;;2.80;;
8171;SDS011;4127;47.908;10.850;2023-06-14T12:22:57;5.03;;;2.70;;
8171;SDS011;4127;47.908;10.850;2023-06-14T12:25:35;3.13;;;2.50;;
8171;SDS011;4127;47.908;10.850;2023-06-14T12:28:06;3.10;;;2.90;;
8171;SDS011;4127;47.908;10.850;2023-06-14T12:30:35;3.20;;;2.80;;
8171;SDS011;4127;47.908;10.850;2023-06-14T12:33:03;3.08;;;2.78;;
8171;SDS011;4127;47.908;10.850;2023-06-14T12:35:30;4.00;;;2.85;;
8171;SDS011;4127;47.908;10.850;2023-06-14T12:37:58;3.58;;;2.95;;
8171;SDS011;4127;47.908;10.850;2023-06-14T12:40:25;3.20;;;2.90;;
8171;SDS011;4127;47.908;10.850;2023-06-14T12:42:52;3.40;;;3.10;;
8171;SDS011;4127;47.908;10.850;2023-06-14T12:45:19;6.63;;;3.20;;
8171;SDS011;4127;47.908;10.850;2023-06-14T12:47:46;4.72;;;3.08;;
8171;SDS011;4127;47.908;10.850;2023-06-14T12:50:13;4.70;;;3.47;;
8171;SDS011;4127;47.908;10.850;2023-06-14T12:52:41;2.90;;;2.70;;
8171;SDS011;4127;47.908;10.850;2023-06-14T12:55:08;4.43;;;3.08;;
8171;SDS011;4127;47.908;10.850;2023-06-14T12:57:35;6.15;;;2.50;;
8171;SDS011;4127;47.908;10.850;2023-06-14T13:00:04;2.63;;;2.42;;
8171;SDS011;4127;47.908;10.850;2023-06-14T13:02:33;3.72;;;2.80;;
8171;SDS011;4127;47.908;10.850;2023-06-14T13:05:01;2.88;;;2.67;;
8171;SDS011;4127;47.908;10.850;2023-06-14T13:07:30;3.30;;;3.00;;
8171;SDS011;4127;47.908;10.850;2023-06-14T13:09:57;4.30;;;3.00;;
8171;SDS011;4127;47.908;10.850;2023-06-14T13:12:23;4.05;;;3.30;;
8171;SDS011;4127;47.908;10.850;2023-06-14T13:14:50;3.42;;;3.10;;
8171;SDS011;4127;47.908;10.850;2023-06-14T13:17:18;4.97;;;2.80;;
8171;SDS011;4127;47.908;10.850;2023-06-14T13:19:45;3.53;;;3.22;;
8171;SDS011;4127;47.908;10.850;2023-06-14T13:22:11;5.40;;;3.40;;
8171;SDS011;4127;47.908;10.850;2023-06-14T13:24:38;3.88;;;2.55;;
8171;SDS011;4127;47.908;10.850;2023-06-14T13:27:05;4.07;;;2.90;;
8171;SDS011;4127;47.908;10.850;2023-06-14T13:29:33;2.78;;;2.58;;
8171;SDS011;4127;47.908;10.850;2023-06-14T13:32:02;3.55;;;2.65;;
8171;SDS011;4127;47.908;10.850;2023-06-14T13:34:30;4.20;;;3.05;;
8171;SDS011;4127;47.908;10.850;2023-06-14T13:36:57;6.22;;;2.97;;
8171;SDS011;4127;47.908;10.850;2023-06-14T13:39:25;3.05;;;2.65;;
8171;SDS011;4127;47.908;10.850;2023-06-14T13:41:52;3.95;;;2.83;;
8171;SDS011;4127;47.908;10.850;2023-06-14T13:44:19;3.63;;;2.80;;
8171;SDS011;4127;47.908;10.850;2023-06-14T13:46:47;3.35;;;3.05;;
8171;SDS011;4127;47.908;10.850;2023-06-14T13:49:14;9.68;;;3.00;;
8171;SDS011;4127;47.908;10.850;2023-06-14T13:51:41;3.13;;;2.78;;
8171;SDS011;4127;47.908;10.850;2023-06-14T13:54:08;3.40;;;3.10;;
8171;SDS011;4127;47.908;10.850;2023-06-14T13:56:35;3.33;;;3.03;;
8171;SDS011;4127;47.908;10.850;2023-06-14T13:59:02;3.85;;;3.45;;
8171;SDS011;4127;47.908;10.850;2023-06-14T14:01:29;3.03;;;2.75;;
8171;SDS011;4127;47.908;10.850;2023-06-14T14:03:56;3.83;;;3.10;;
8171;SDS011;4127;47.908;10.850;2023-06-14T14:06:25;4.68;;;2.80;;
8171;SDS011;4127;47.908;10.850;2023-06-14T14:08:52;4.28;;;2.80;;
8171;SDS011;4127;47.908;10.850;2023-06-14T14:11:20;3.60;;;3.05;;
8171;SDS011;4127;47.908;10.850;2023-06-14T14:13:46;3.35;;;2.83;;
8171;SDS011;4127;47.908;10.850;2023-06-14T14:16:14;4.75;;;3.00;;
8171;SDS011;4127;47.908;10.850;2023-06-14T14:18:41;4.05;;;3.15;;
8171;SDS011;4127;47.908;10.850;2023-06-14T14:21:09;2.97;;;2.70;;
8171;SDS011;4127;47.908;10.850;2023-06-14T14:23:36;3.08;;;2.80;;
8171;SDS011;4127;47.908;10.850;2023-06-14T14:26:05;3.88;;;2.70;;
8171;SDS011;4127;47.908;10.850;2023-06-14T14:28:32;3.42;;;3.00;;
8171;SDS011;4127;47.908;10.850;2023-06-14T14:30:59;3.40;;;3.10;;
8171;SDS011;4127;47.908;10.850;2023-06-14T14:33:27;11.73;;;3.25;;
8171;SDS011;4127;47.908;10.850;2023-06-14T14:35:54;6.65;;;3.10;;
8171;SDS011;4127;47.908;10.850;2023-06-14T14:38:21;4.05;;;3.25;;
8171;SDS011;4127;47.908;10.850;2023-06-14T14:40:48;3.05;;;2.78;;
8171;SDS011;4127;47.908;10.850;2023-06-14T14:43:15;3.17;;;2.83;;
8171;SDS011;4127;47.908;10.850;2023-06-14T14:45:42;3.03;;;2.83;;
8171;SDS011;4127;47.908;10.850;2023-06-14T14:48:08;3.83;;;3.05;;
8171;SDS011;4127;47.908;10.850;2023-06-14T14:50:36;3.70;;;2.90;;
8171;SDS011;4127;47.908;10.850;2023-06-14T14:53:03;4.28;;;2.90;;
8171;SDS011;4127;47.908;10.850;2023-06-14T14:55:31;3.40;;;3.10;;
8171;SDS011;4127;47.908;10.850;2023-06-14T14:58:00;3.28;;;2.85;;
8171;SDS011;4127;47.908;10.850;2023-06-14T15:00:28;4.00;;;3.17;;
8171;SDS011;4127;47.908;10.850;2023-06-14T15:02:55;3.83;;;3.17;;
8171;SDS011;4127;47.908;10.850;2023-06-14T15:05:22;4.32;;;3.17;;
8171;SDS011;4127;47.908;10.850;2023-06-14T15:07:49;3.55;;;3.22;;
8171;SDS011;4127;47.908;10.850;2023-06-14T15:10:16;4.03;;;3.30;;
8171;SDS011;4127;47.908;10.850;2023-06-14T15:12:43;3.60;;;3.30;;
8171;SDS011;4127;47.908;10.850;2023-06-14T15:15:10;3.15;;;2.95;;
8171;SDS011;4127;47.908;10.850;2023-06-14T15:17:37;4.40;;;3.30;;
8171;SDS011;4127;47.908;10.850;2023-06-14T15:20:04;4.28;;;3.13;;
8171;SDS011;4127;47.908;10.850;2023-06-14T15:22:32;3.47;;;3.17;;
8171;SDS011;4127;47.908;10.850;2023-06-14T15:24:59;3.65;;;3.10;;